Time;durP1;ratioP1;P1;durP2;ratioP2;P2;SDS_P1;SDS_P2;PMS_P1;PMS_P2;Temp;Humidity;BMP_temperature;BMP_pressure;BME280_temperature;BME280_humidity;BME280_pressure;Samples;Min_cycle;Max_cycle;Signal;HPM_P1;HPM_P2
2023/12/30 00:00:11;;;;;;;9.07;1.17;;;7.60;99.90;;;;;;5112236;28;20036;-56
2023/12/30 00:02:37;;;;;;;9.52;1.50;;;7.70;99.90;;;;;;5112743;28;20039;-59
2023/12/30 00:05:03;;;;;;;8.73;1.30;;;7.70;99.90;;;;;;5113130;28;20138;-57
2023/12/30 00:07:29;;;;;;;5.97;1.45;;;7.60;99.90;;;;;;5112609;28;20122;-57
2023/12/30 00:09:54;;;;;;;7.00;1.15;;;7.70;99.90;;;;;;5110441;28;20122;-56
2023/12/30 00:12:20;;;;;;;11.63;1.63;;;7.60;99.90;;;;;;5108011;28;20031;-58
2023/12/30 00:14:46;;;;;;;11.48;2.08;;;7.70;99.90;;;;;;5112078;28;20039;-57
2023/12/30 00:17:11;;;;;;;10.50;1.48;;;7.40;99.90;;;;;;5112391;28;20043;-57
2023/12/30 00:19:42;;;;;;;12.18;2.65;;;7.50;99.90;;;;;;5112265;28;20044;-56
2023/12/30 00:22:08;;;;;;;10.52;1.40;;;7.50;99.90;;;;;;5112581;28;20040;-57
2023/12/30 00:24:35;;;;;;;16.50;2.08;;;7.70;99.90;;;;;;5016889;28;20115;-58
2023/12/30 00:27:01;;;;;;;10.07;1.40;;;7.40;99.90;;;;;;5112356;28;20063;-57
2023/12/30 00:29:26;;;;;;;12.75;1.50;;;7.30;99.90;;;;;;5111490;28;20521;-58
2023/12/30 00:31:52;;;;;;;11.73;1.48;;;7.80;99.90;;;;;;5112164;28;20090;-57
2023/12/30 00:34:18;;;;;;;9.88;1.15;;;7.50;99.90;;;;;;5103933;28;20039;-56
2023/12/30 00:36:44;;;;;;;5.95;1.10;;;7.30;99.90;;;;;;5112070;28;20050;-58
2023/12/30 00:39:10;;;;;;;9.73;1.45;;;7.50;99.90;;;;;;5111651;28;20050;-57
2023/12/30 00:41:36;;;;;;;8.32;2.15;;;7.50;99.90;;;;;;5112024;28;20533;-57
2023/12/30 00:44:01;;;;;;;10.85;1.23;;;7.30;99.90;;;;;;5112051;28;20036;-57
2023/12/30 00:46:27;;;;;;;9.48;1.55;;;7.50;99.90;;;;;;5111717;28;20071;-57
2023/12/30 00:48:53;;;;;;;5.60;1.10;;;7.40;99.90;;;;;;5032054;28;20029;-59
2023/12/30 00:51:18;;;;;;;12.77;1.70;;;7.30;99.90;;;;;;5027274;28;20029;-58
2023/12/30 00:53:44;;;;;;;9.48;1.17;;;7.40;99.90;;;;;;5027696;28;20041;-58
2023/12/30 00:56:10;;;;;;;9.27;1.70;;;7.40;99.90;;;;;;5110561;28;20060;-57
2023/12/30 00:58:35;;;;;;;8.38;0.82;;;7.50;99.90;;;;;;5111187;28;20045;-59
2023/12/30 01:01:01;;;;;;;7.32;1.40;;;7.30;99.90;;;;;;5111135;28;20042;-58
2023/12/30 01:03:27;;;;;;;11.10;1.35;;;7.40;99.90;;;;;;5111392;28;20036;-57
2023/12/30 01:05:52;;;;;;;8.68;1.10;;;7.40;99.90;;;;;;5111678;28;20035;-58
2023/12/30 01:08:18;;;;;;;8.50;1.55;;;7.20;99.90;;;;;;5111721;28;20044;-59
2023/12/30 01:10:44;;;;;;;8.35;1.27;;;7.20;99.90;;;;;;5111281;28;20478;-58
2023/12/30 01:13:09;;;;;;;7.95;1.00;;;7.30;99.90;;;;;;5110921;28;20069;-57
2023/12/30 01:15:36;;;;;;;9.35;1.42;;;7.20;99.90;;;;;;5110548;28;20479;-58
2023/12/30 01:18:02;;;;;;;6.07;1.27;;;7.30;99.90;;;;;;5111397;28;20466;-58
2023/12/30 01:20:28;;;;;;;9.30;1.30;;;7.40;99.90;;;;;;5106423;28;20048;-58
2023/12/30 01:22:54;;;;;;;9.60;1.80;;;7.30;99.90;;;;;;5110884;28;20069;-57
2023/12/30 01:25:19;;;;;;;5.93;1.27;;;7.10;99.90;;;;;;5110945;28;20078;-59
2023/12/30 01:27:45;;;;;;;10.45;1.83;;;7.10;99.90;;;;;;5111429;28;20043;-58
2023/12/30 01:30:11;;;;;;;11.82;2.28;;;7.10;99.90;;;;;;5031125;28;20048;-59
2023/12/30 01:32:37;;;;;;;5.35;0.90;;;7.20;99.90;;;;;;5028066;28;20042;-59
2023/12/30 01:35:03;;;;;;;10.10;1.30;;;7.40;99.90;;;;;;5029152;28;20048;-59
2023/12/30 01:37:29;;;;;;;7.18;1.10;;;7.30;99.90;;;;;;5108081;28;20047;-58
2023/12/30 01:39:55;;;;;;;6.50;1.13;;;7.30;99.90;;;;;;5111414;28;20386;-58
2023/12/30 01:42:20;;;;;;;12.70;1.42;;;7.20;99.90;;;;;;5010353;28;20037;-58
2023/12/30 01:44:46;;;;;;;9.32;1.50;;;7.20;99.90;;;;;;5026599;28;20038;-58
2023/12/30 01:47:12;;;;;;;5.15;1.00;;;7.10;99.90;;;;;;5027703;28;20025;-59
2023/12/30 01:49:38;;;;;;;10.15;1.40;;;7.20;99.90;;;;;;5027701;28;20037;-59
2023/12/30 01:52:05;;;;;;;6.53;0.90;;;7.20;99.90;;;;;;5027729;28;20400;-58
2023/12/30 01:54:31;;;;;;;12.80;1.38;;;6.90;99.90;;;;;;5027755;28;20046;-57
2023/12/30 01:56:58;;;;;;;7.10;1.30;;;7.20;99.90;;;;;;5065357;28;20152;-60
2023/12/30 01:59:27;;;;;;;6.68;1.35;;;6.90;99.90;;;;;;5109813;28;20055;-58
2023/12/30 02:01:55;;;;;;;8.73;1.13;;;7.10;99.90;;;;;;5110487;28;20046;-60
2023/12/30 02:04:22;;;;;;;7.65;1.48;;;6.90;99.90;;;;;;5110686;28;20044;-58
2023/12/30 02:06:48;;;;;;;8.80;1.60;;;6.80;99.90;;;;;;5030791;28;20526;-60
2023/12/30 02:09:14;;;;;;;8.77;1.00;;;6.80;99.90;;;;;;5029239;28;20121;-58
2023/12/30 02:11:39;;;;;;;13.55;1.52;;;6.70;99.90;;;;;;5030970;28;20491;-58
2023/12/30 02:14:29;;;;;;;9.98;1.60;;;6.90;99.90;;;;;;5031358;28;20038;-57
2023/12/30 02:16:55;;;;;;;6.97;1.20;;;6.70;99.90;;;;;;5081966;28;20043;-59
2023/12/30 02:19:20;;;;;;;9.70;1.38;;;6.80;99.90;;;;;;5114612;28;20042;-60
2023/12/30 02:21:47;;;;;;;11.90;1.60;;;6.80;99.90;;;;;;5114907;28;20028;-59
2023/12/30 02:24:13;;;;;;;10.85;1.38;;;6.90;99.90;;;;;;5114526;28;20040;-58
2023/12/30 02:26:39;;;;;;;9.63;1.33;;;7.00;99.90;;;;;;5114424;27;20073;-57
2023/12/30 02:29:08;;;;;;;10.52;1.70;;;7.10;99.90;;;;;;5114591;28;21315;-59
2023/12/30 02:31:45;;;;;;;9.30;1.25;;;6.90;99.90;;;;;;5033146;28;20369;-60
2023/12/30 02:34:15;;;;;;;15.68;1.45;;;6.80;99.90;;;;;;5030836;28;20507;-60
2023/12/30 02:36:43;;;;;;;7.40;1.40;;;6.90;99.90;;;;;;5030557;28;20041;-57
2023/12/30 02:39:09;;;;;;;9.70;1.70;;;7.00;99.90;;;;;;5030454;28;20445;-57
2023/12/30 02:41:35;;;;;;;7.97;1.23;;;6.90;99.90;;;;;;5040488;28;20046;-58
2023/12/30 02:44:02;;;;;;;8.32;1.30;;;7.00;99.90;;;;;;5113532;28;20039;-58
2023/12/30 02:46:27;;;;;;;9.52;1.30;;;7.00;99.90;;;;;;5112907;28;20482;-59
2023/12/30 02:48:53;;;;;;;11.57;1.25;;;6.80;99.90;;;;;;5113744;28;20034;-59
2023/12/30 02:51:19;;;;;;;9.93;1.55;;;6.90;99.90;;;;;;5113507;28;20035;-58
2023/12/30 02:53:45;;;;;;;9.57;1.65;;;6.80;99.90;;;;;;5113484;28;20042;-58
2023/12/30 02:56:21;;;;;;;10.55;1.50;;;6.60;99.90;;;;;;5113254;28;20031;-56
2023/12/30 02:58:50;;;;;;;10.90;1.27;;;6.80;99.90;;;;;;5113262;28;20401;-59
2023/12/30 03:01:15;;;;;;;7.70;1.05;;;6.70;99.90;;;;;;5091997;28;20035;-58
2023/12/30 03:03:41;;;;;;;11.88;1.25;;;6.50;99.90;;;;;;5103664;28;20123;-59
2023/12/30 03:06:07;;;;;;;12.75;1.65;;;6.70;99.90;;;;;;5113193;28;20047;-56
2023/12/30 03:08:32;;;;;;;12.00;1.30;;;6.50;99.90;;;;;;5113063;28;20439;-59
2023/12/30 03:10:58;;;;;;;6.32;1.60;;;6.50;99.90;;;;;;5109647;28;20067;-56
2023/12/30 03:13:24;;;;;;;7.53;1.30;;;6.50;99.90;;;;;;5107957;28;20088;-56
2023/12/30 03:15:49;;;;;;;9.30;1.45;;;6.70;99.90;;;;;;5113218;28;20091;-56
2023/12/30 03:18:15;;;;;;;15.63;1.23;;;6.80;99.90;;;;;;5112410;28;20515;-54
2023/12/30 03:20:41;;;;;;;15.38;1.60;;;6.60;99.90;;;;;;5111642;28;20032;-57
2023/12/30 03:23:06;;;;;;;9.50;1.65;;;6.70;99.90;;;;;;5031515;28;20041;-57
2023/12/30 03:25:32;;;;;;;11.40;1.67;;;6.70;99.90;;;;;;5075639;28;20445;-56
2023/12/30 03:27:58;;;;;;;12.45;1.85;;;6.70;99.90;;;;;;5099365;28;20038;-58
2023/12/30 03:30:24;;;;;;;7.50;1.20;;;6.60;99.90;;;;;;5109219;28;20035;-59
2023/12/30 03:32:49;;;;;;;10.95;1.50;;;6.50;99.90;;;;;;5112168;28;20031;-55
2023/12/30 03:35:16;;;;;;;11.75;1.15;;;6.30;99.90;;;;;;5112584;28;20043;-57
2023/12/30 03:37:42;;;;;;;6.32;1.25;;;6.30;99.90;;;;;;5113336;28;20035;-58
2023/12/30 03:40:08;;;;;;;12.40;1.30;;;6.30;99.90;;;;;;5107175;28;20402;-57
2023/12/30 03:42:34;;;;;;;12.00;1.33;;;6.50;99.90;;;;;;5029114;28;20041;-56
2023/12/30 03:44:59;;;;;;;10.32;1.52;;;6.50;99.90;;;;;;5029347;28;20112;-56
2023/12/30 03:47:25;;;;;;;15.82;1.92;;;6.40;99.90;;;;;;5110044;28;20043;-57
2023/12/30 03:49:51;;;;;;;8.73;1.25;;;6.40;99.90;;;;;;5113169;28;20110;-57
2023/12/30 03:52:16;;;;;;;9.48;1.35;;;6.40;99.90;;;;;;5112683;28;20482;-56
2023/12/30 03:54:42;;;;;;;10.68;1.10;;;6.70;99.90;;;;;;5107462;28;20478;-56
2023/12/30 03:57:08;;;;;;;7.55;1.00;;;6.40;99.90;;;;;;5028089;28;20041;-57
2023/12/30 03:59:36;;;;;;;6.97;1.00;;;6.40;99.90;;;;;;5028119;28;20133;-55
2023/12/30 04:02:01;;;;;;;13.15;1.90;;;6.10;99.90;;;;;;5029134;28;20022;-57
2023/12/30 04:04:27;;;;;;;9.52;1.50;;;6.00;99.90;;;;;;5103992;28;20039;-58
2023/12/30 04:06:53;;;;;;;7.18;1.15;;;6.00;99.90;;;;;;5112569;28;20057;-54
2023/12/30 04:09:18;;;;;;;13.88;1.80;;;6.20;99.90;;;;;;5111833;28;20071;-56
2023/12/30 04:11:44;;;;;;;9.23;1.88;;;6.20;99.90;;;;;;5112816;28;20036;-55
2023/12/30 04:14:10;;;;;;;14.25;1.35;;;5.90;99.90;;;;;;5111287;28;20035;-58
2023/12/30 04:16:35;;;;;;;15.48;1.80;;;5.90;99.90;;;;;;5111620;28;20046;-58
2023/12/30 04:19:01;;;;;;;14.07;1.20;;;6.20;99.90;;;;;;5105646;28;20040;-58
2023/12/30 04:21:27;;;;;;;10.05;1.55;;;5.90;99.90;;;;;;5109741;27;20614;-58
2023/12/30 04:23:52;;;;;;;13.45;1.30;;;6.20;99.90;;;;;;5111164;28;20048;-58
2023/12/30 04:26:18;;;;;;;11.05;1.38;;;6.10;99.90;;;;;;5112439;28;20040;-57
2023/12/30 04:28:46;;;;;;;10.65;1.60;;;6.20;99.90;;;;;;5112239;28;20031;-57
2023/12/30 04:31:12;;;;;;;11.27;1.55;;;6.40;99.90;;;;;;5111330;28;20386;-58
2023/12/30 04:33:37;;;;;;;8.43;1.50;;;6.40;99.90;;;;;;5112405;28;20039;-57
2023/12/30 04:36:03;;;;;;;8.70;1.30;;;6.40;99.90;;;;;;5029727;28;20038;-56
2023/12/30 04:38:29;;;;;;;12.73;1.63;;;6.40;99.90;;;;;;5028470;28;20108;-58
2023/12/30 04:40:56;;;;;;;11.00;1.45;;;6.30;99.90;;;;;;5028440;28;20527;-57
2023/12/30 04:43:21;;;;;;;6.68;1.15;;;6.20;99.90;;;;;;5028795;28;20487;-57
2023/12/30 04:45:47;;;;;;;9.82;1.33;;;6.20;99.90;;;;;;5041010;28;20039;-57
2023/12/30 04:48:12;;;;;;;12.48;1.70;;;6.10;99.90;;;;;;5111252;28;20043;-56
2023/12/30 04:50:38;;;;;;;10.20;1.35;;;6.50;99.90;;;;;;5111341;28;20096;-54
2023/12/30 04:53:04;;;;;;;9.32;1.80;;;6.20;99.90;;;;;;5111931;28;20043;-57
2023/12/30 04:55:29;;;;;;;10.52;1.45;;;6.10;99.90;;;;;;5111649;28;20066;-56
2023/12/30 04:57:55;;;;;;;10.15;1.58;;;6.10;99.90;;;;;;5111757;28;20047;-58
2023/12/30 05:00:21;;;;;;;12.07;1.55;;;6.20;99.90;;;;;;5111023;28;20047;-56
2023/12/30 05:02:47;;;;;;;13.18;1.77;;;6.40;99.90;;;;;;5111480;28;20168;-57
2023/12/30 05:05:12;;;;;;;14.15;1.73;;;6.20;99.90;;;;;;5030457;28;20041;-58
2023/12/30 05:07:38;;;;;;;11.77;1.60;;;6.10;99.90;;;;;;5086380;28;20118;-56
2023/12/30 05:10:04;;;;;;;10.75;1.30;;;5.90;99.90;;;;;;5026958;28;20108;-56
2023/12/30 05:12:30;;;;;;;7.10;1.13;;;6.10;99.90;;;;;;5066639;28;20494;-56
2023/12/30 05:14:55;;;;;;;10.95;1.20;;;6.20;99.90;;;;;;5109977;28;20050;-55
2023/12/30 05:17:21;;;;;;;11.68;1.98;;;5.80;99.90;;;;;;5110669;28;20119;-56
2023/12/30 05:19:47;;;;;;;12.15;1.65;;;5.80;99.90;;;;;;5110187;28;20140;-58
2023/12/30 05:22:12;;;;;;;7.78;1.38;;;6.20;99.90;;;;;;5110523;28;20156;-56
2023/12/30 05:24:38;;;;;;;15.68;2.35;;;5.80;99.90;;;;;;5109688;28;20051;-58
2023/12/30 05:27:04;;;;;;;9.52;1.80;;;6.20;99.90;;;;;;5111486;28;20067;-58
2023/12/30 05:29:30;;;;;;;10.68;1.10;;;5.70;99.90;;;;;;5111189;28;20104;-57
2023/12/30 05:31:55;;;;;;;12.70;1.42;;;5.80;99.90;;;;;;5030617;28;20043;-59
2023/12/30 05:34:21;;;;;;;17.50;2.08;;;5.90;99.90;;;;;;5029353;28;20041;-58
2023/12/30 05:36:47;;;;;;;11.55;1.55;;;6.10;99.90;;;;;;5026899;28;20033;-58
2023/12/30 05:39:14;;;;;;;14.60;2.03;;;5.80;99.90;;;;;;5028069;28;20509;-60
2023/12/30 05:41:40;;;;;;;10.65;1.38;;;5.70;99.90;;;;;;5027528;28;20045;-58
2023/12/30 05:44:06;;;;;;;15.23;2.65;;;5.50;99.90;;;;;;5027110;28;20033;-57
2023/12/30 05:46:32;;;;;;;17.13;1.77;;;5.50;99.90;;;;;;5026038;28;20045;-58
2023/12/30 05:48:57;;;;;;;11.27;1.67;;;5.80;99.90;;;;;;5027982;28;20095;-58
2023/12/30 05:51:23;;;;;;;11.63;1.40;;;5.90;99.90;;;;;;5027792;28;20120;-58
2023/12/30 05:53:48;;;;;;;12.25;1.67;;;5.40;99.90;;;;;;5036223;28;20060;-57
2023/12/30 05:56:24;;;;;;;11.93;1.88;;;5.40;99.90;;;;;;5027753;28;20049;-58
2023/12/30 05:58:52;;;;;;;15.80;2.10;;;5.90;99.90;;;;;;5027542;28;20037;-58
2023/12/30 06:01:18;;;;;;;12.43;1.65;;;5.60;99.90;;;;;;5027176;28;20045;-57
2023/12/30 06:03:43;;;;;;;14.80;1.60;;;5.90;99.90;;;;;;5027498;28;20031;-56
2023/12/30 06:06:09;;;;;;;11.30;1.60;;;5.70;99.90;;;;;;5027455;28;20124;-56
2023/12/30 06:08:35;;;;;;;12.88;2.00;;;5.90;99.90;;;;;;5027713;28;20048;-58
2023/12/30 06:11:01;;;;;;;6.55;1.48;;;5.40;99.90;;;;;;5027416;28;20086;-57
2023/12/30 06:13:27;;;;;;;13.18;1.75;;;5.90;99.90;;;;;;5027738;28;20495;-58
2023/12/30 06:15:53;;;;;;;12.32;1.85;;;5.50;99.90;;;;;;5043518;28;20046;-59
2023/12/30 06:18:18;;;;;;;14.07;2.55;;;5.60;99.90;;;;;;5110480;28;20038;-58
2023/12/30 06:20:46;;;;;;;11.23;1.75;;;5.50;99.90;;;;;;5012968;28;20044;-57
2023/12/30 06:23:14;;;;;;;11.68;1.80;;;5.60;99.90;;;;;;5027195;28;20046;-59
2023/12/30 06:25:40;;;;;;;12.48;1.52;;;5.90;99.90;;;;;;5027264;28;20053;-56
2023/12/30 06:28:06;;;;;;;10.57;1.80;;;5.60;99.90;;;;;;5027403;28;20037;-57
2023/12/30 06:30:31;;;;;;;10.68;1.55;;;5.40;99.90;;;;;;5026779;28;20125;-57
2023/12/30 06:32:58;;;;;;;11.93;1.65;;;5.30;99.90;;;;;;5026804;28;20057;-57
2023/12/30 06:35:24;;;;;;;11.13;1.75;;;5.30;99.90;;;;;;5025916;28;20034;-57
2023/12/30 06:37:50;;;;;;;15.90;1.90;;;4.90;99.90;;;;;;5027357;28;20120;-58
2023/12/30 06:40:15;;;;;;;12.93;1.50;;;4.80;99.90;;;;;;5103021;28;20085;-56
2023/12/30 06:42:44;;;;;;;12.35;1.52;;;5.10;99.90;;;;;;5109735;28;20039;-57
2023/12/30 06:45:10;;;;;;;6.65;1.40;;;4.90;99.90;;;;;;5110271;28;20554;-57
2023/12/30 06:47:36;;;;;;;13.68;1.45;;;5.10;99.90;;;;;;5110426;28;20075;-56
2023/12/30 06:50:02;;;;;;;10.60;1.30;;;4.70;99.90;;;;;;5110095;28;20042;-56
2023/12/30 06:52:27;;;;;;;9.85;1.75;;;4.80;99.90;;;;;;5110578;28;20478;-56
2023/12/30 06:54:53;;;;;;;13.25;1.50;;;4.70;99.90;;;;;;5111355;28;20051;-57
2023/12/30 06:57:19;;;;;;;16.38;1.83;;;5.10;99.90;;;;;;5114216;28;20047;-57
2023/12/30 06:59:45;;;;;;;11.38;1.77;;;5.20;99.90;;;;;;5108851;28;20039;-56
2023/12/30 07:02:10;;;;;;;11.45;1.42;;;4.80;99.90;;;;;;5114160;28;20119;-56
2023/12/30 07:04:36;;;;;;;12.27;1.55;;;4.80;99.90;;;;;;5113611;28;20563;-57
2023/12/30 07:07:02;;;;;;;9.70;1.42;;;4.70;99.90;;;;;;5113677;28;20035;-56
2023/12/30 07:09:28;;;;;;;11.15;1.60;;;5.30;99.90;;;;;;5113523;28;20031;-56
2023/12/30 07:11:53;;;;;;;17.35;1.80;;;4.80;99.90;;;;;;5113676;28;20043;-56
2023/12/30 07:14:19;;;;;;;15.13;2.13;;;4.90;99.90;;;;;;5113371;28;20085;-55
2023/12/30 07:16:49;;;;;;;14.38;1.95;;;5.40;99.90;;;;;;5113802;28;20035;-57
2023/12/30 07:19:16;;;;;;;13.05;1.80;;;5.30;99.90;;;;;;5113562;28;20080;-56
2023/12/30 07:21:42;;;;;;;10.52;1.55;;;4.70;99.90;;;;;;5113516;28;20115;-56
2023/12/30 07:24:07;;;;;;;8.27;1.30;;;5.20;99.90;;;;;;5113144;28;20060;-57
2023/12/30 07:26:33;;;;;;;12.45;1.83;;;4.90;99.90;;;;;;5027763;28;20040;-57
2023/12/30 07:28:59;;;;;;;12.15;1.60;;;5.20;99.90;;;;;;5113219;28;20028;-57
2023/12/30 07:31:28;;;;;;;9.52;1.20;;;4.60;99.90;;;;;;5113306;28;20039;-55
2023/12/30 07:33:53;;;;;;;12.45;1.85;;;5.20;99.90;;;;;;5113435;28;20100;-58
2023/12/30 07:36:19;;;;;;;13.20;1.95;;;4.90;99.90;;;;;;5028588;28;20041;-55
2023/12/30 07:38:45;;;;;;;11.05;1.50;;;5.00;99.90;;;;;;5029401;28;20037;-57
2023/12/30 07:41:14;;;;;;;11.57;1.70;;;4.60;99.90;;;;;;5029422;28;20041;-56
2023/12/30 07:43:40;;;;;;;8.85;2.10;;;5.10;99.90;;;;;;5029691;28;20090;-56
2023/12/30 07:46:05;;;;;;;7.78;2.63;;;4.60;99.90;;;;;;5040581;28;20423;-58
2023/12/30 07:48:31;;;;;;;9.10;1.50;;;5.20;99.90;;;;;;5112586;28;20176;-58
2023/12/30 07:50:57;;;;;;;13.05;1.67;;;5.40;99.90;;;;;;5112588;28;20044;-58
2023/12/30 07:53:23;;;;;;;11.95;1.70;;;4.70;99.90;;;;;;5113057;27;20102;-56
2023/12/30 07:55:48;;;;;;;7.07;1.30;;;5.20;99.90;;;;;;5113034;28;20039;-58
2023/12/30 07:58:14;;;;;;;8.90;1.77;;;4.80;99.90;;;;;;5113186;28;20035;-57
2023/12/30 08:00:40;;;;;;;21.80;2.97;;;4.60;99.90;;;;;;5112443;28;20122;-57
2023/12/30 08:03:05;;;;;;;9.98;1.40;;;5.40;99.90;;;;;;5112971;27;20039;-55
2023/12/30 08:05:31;;;;;;;13.02;1.52;;;4.70;99.90;;;;;;5112265;28;20080;-58
2023/12/30 08:07:57;;;;;;;7.50;1.40;;;5.30;99.90;;;;;;5112927;28;20412;-58
2023/12/30 08:10:24;;;;;;;18.15;1.85;;;4.60;99.90;;;;;;5029454;28;20049;-57
2023/12/30 08:12:50;;;;;;;9.93;1.45;;;5.30;99.90;;;;;;5090986;28;20142;-56
2023/12/30 08:15:16;;;;;;;10.98;1.95;;;4.70;99.90;;;;;;5111895;28;20049;-57
2023/12/30 08:17:41;;;;;;;10.95;1.50;;;4.70;99.90;;;;;;5112248;28;20122;-58
2023/12/30 08:20:08;;;;;;;7.50;1.73;;;5.10;99.90;;;;;;5112758;28;20039;-56
2023/12/30 08:22:33;;;;;;;18.38;1.75;;;4.90;99.90;;;;;;5103644;28;20032;-57
2023/12/30 08:24:59;;;;;;;14.82;1.67;;;5.00;99.90;;;;;;5112349;28;20049;-58
2023/12/30 08:27:25;;;;;;;8.10;1.90;;;5.10;99.90;;;;;;5029124;28;20476;-57
2023/12/30 08:29:51;;;;;;;7.65;1.65;;;5.10;99.90;;;;;;5016108;28;20075;-58
2023/12/30 08:32:17;;;;;;;14.63;1.63;;;5.50;99.90;;;;;;5111868;28;20081;-56
2023/12/30 08:34:42;;;;;;;11.90;2.03;;;5.50;99.90;;;;;;5112212;27;20074;-56
2023/12/30 08:37:09;;;;;;;13.48;1.88;;;5.60;99.90;;;;;;5107738;28;20036;-57
2023/12/30 08:39:38;;;;;;;13.98;1.88;;;5.30;99.90;;;;;;5111436;28;20036;-56
2023/12/30 08:42:05;;;;;;;13.40;1.85;;;5.50;99.90;;;;;;5102192;28;20069;-57
2023/12/30 08:44:31;;;;;;;14.65;1.75;;;5.30;99.90;;;;;;5066491;28;20367;-57
2023/12/30 08:46:57;;;;;;;13.40;1.85;;;5.60;99.90;;;;;;5063790;28;20140;-56
2023/12/30 08:49:23;;;;;;;13.98;1.95;;;4.90;99.90;;;;;;5105656;28;20122;-56
2023/12/30 08:51:48;;;;;;;10.73;1.65;;;5.50;99.90;;;;;;5073680;28;20141;-57
2023/12/30 08:54:14;;;;;;;15.73;1.90;;;5.10;99.90;;;;;;5074885;28;20033;-56
2023/12/30 08:56:40;;;;;;;9.38;2.47;;;5.20;99.90;;;;;;5073786;28;20046;-57
2023/12/30 08:59:06;;;;;;;18.42;2.03;;;5.10;99.90;;;;;;5049115;28;20034;-56
2023/12/30 09:01:32;;;;;;;13.88;1.92;;;6.00;99.90;;;;;;5056593;28;20404;-56
2023/12/30 09:03:59;;;;;;;8.55;1.77;;;5.20;99.90;;;;;;5083316;28;20035;-58
2023/12/30 09:06:25;;;;;;;9.13;2.10;;;5.20;99.90;;;;;;5015179;28;20081;-57
2023/12/30 09:08:51;;;;;;;8.88;2.08;;;5.30;99.90;;;;;;5075767;28;20431;-58
2023/12/30 09:11:18;;;;;;;10.73;1.80;;;5.10;99.90;;;;;;5058837;28;20123;-56
2023/12/30 09:13:44;;;;;;;15.30;1.70;;;5.50;99.90;;;;;;5064732;28;20096;-57
2023/12/30 09:16:09;;;;;;;15.38;1.98;;;5.90;99.90;;;;;;5087040;28;20038;-56
2023/12/30 09:18:35;;;;;;;11.18;1.40;;;5.90;99.90;;;;;;5073430;28;20041;-57
2023/12/30 09:21:01;;;;;;;8.90;1.50;;;5.30;99.90;;;;;;5067931;28;20123;-57
2023/12/30 09:23:26;;;;;;;15.70;2.38;;;5.60;99.90;;;;;;5062292;28;20044;-59
2023/12/30 09:25:52;;;;;;;13.32;1.60;;;5.40;99.90;;;;;;5048655;28;20042;-56
2023/12/30 09:28:17;;;;;;;11.50;1.98;;;5.80;99.90;;;;;;5079680;28;20037;-58
2023/12/30 09:30:43;;;;;;;10.07;1.90;;;6.00;99.90;;;;;;5083069;28;20069;-57
2023/12/30 09:33:09;;;;;;;14.23;2.35;;;6.10;99.90;;;;;;5068835;28;20494;-57
2023/12/30 09:35:34;;;;;;;14.15;2.22;;;5.70;99.90;;;;;;5056677;28;20095;-59
2023/12/30 09:38:00;;;;;;;10.82;1.95;;;5.70;99.90;;;;;;5084704;28;20458;-57
2023/12/30 09:40:27;;;;;;;13.65;2.28;;;5.70;99.90;;;;;;5075570;28;20335;-57
2023/12/30 09:42:57;;;;;;;11.98;2.28;;;6.30;99.90;;;;;;5010187;28;20042;-58
2023/12/30 09:45:24;;;;;;;17.25;2.70;;;6.50;99.90;;;;;;5050724;28;20077;-58
2023/12/30 09:47:51;;;;;;;9.82;2.20;;;6.40;99.90;;;;;;5089162;28;20042;-58
2023/12/30 09:50:16;;;;;;;12.75;2.30;;;6.10;99.90;;;;;;5083955;28;21979;-58
2023/12/30 09:52:42;;;;;;;15.77;2.38;;;6.40;99.90;;;;;;5073695;28;20122;-56
2023/12/30 09:55:08;;;;;;;15.82;2.25;;;6.50;99.90;;;;;;5017795;28;20043;-58
2023/12/30 09:57:34;;;;;;;11.95;2.75;;;6.20;99.90;;;;;;5057393;28;20035;-58
2023/12/30 10:00:00;;;;;;;14.85;3.20;;;6.40;99.90;;;;;;5055389;28;20153;-59
2023/12/30 10:02:26;;;;;;;19.33;3.45;;;6.80;99.90;;;;;;5050870;28;20049;-58
2023/12/30 10:04:54;;;;;;;16.83;4.18;;;6.30;99.90;;;;;;5070988;28;20045;-59
2023/12/30 10:07:20;;;;;;;19.00;4.05;;;6.90;99.90;;;;;;5026649;28;20043;-58
2023/12/30 10:09:46;;;;;;;13.30;4.55;;;6.60;99.90;;;;;;5005728;28;20038;-57
2023/12/30 10:12:12;;;;;;;16.30;4.82;;;6.80;99.90;;;;;;5053418;28;20090;-57
2023/12/30 10:14:37;;;;;;;18.85;4.15;;;6.80;99.90;;;;;;5047659;28;20071;-56
2023/12/30 10:17:06;;;;;;;13.45;4.78;;;7.20;99.90;;;;;;5056741;28;20050;-57
2023/12/30 10:19:32;;;;;;;19.48;5.03;;;6.90;99.90;;;;;;5040585;28;20049;-57
2023/12/30 10:21:58;;;;;;;19.67;4.90;;;7.10;99.90;;;;;;5060204;28;20042;-57
2023/12/30 10:24:25;;;;;;;15.52;5.55;;;7.40;99.90;;;;;;5002913;28;20051;-58
2023/12/30 10:26:50;;;;;;;11.73;4.63;;;7.70;99.90;;;;;;5062124;28;20031;-58
2023/12/30 10:29:16;;;;;;;14.35;5.00;;;7.50;99.90;;;;;;5067906;28;20080;-57
2023/12/30 10:31:42;;;;;;;15.10;4.85;;;7.70;99.90;;;;;;5067840;28;20041;-59
2023/12/30 10:34:08;;;;;;;17.35;5.30;;;7.70;99.90;;;;;;5063397;28;20051;-59
2023/12/30 10:36:35;;;;;;;23.20;5.32;;;7.80;99.90;;;;;;5070186;28;20046;-58
2023/12/30 10:39:02;;;;;;;21.95;6.13;;;8.20;99.90;;;;;;5013924;28;20500;-59
2023/12/30 10:41:27;;;;;;;15.55;3.90;;;8.20;99.90;;;;;;5086615;28;20522;-59
2023/12/30 10:43:53;;;;;;;19.35;4.90;;;8.20;99.90;;;;;;5083133;27;20047;-57
2023/12/30 10:46:19;;;;;;;16.55;4.82;;;8.10;99.90;;;;;;5080236;28;20462;-57
2023/12/30 10:48:56;;;;;;;20.05;6.20;;;8.40;99.90;;;;;;5093014;28;20036;-58
2023/12/30 10:51:26;;;;;;;14.77;4.30;;;8.00;99.90;;;;;;5085853;28;20036;-58
2023/12/30 10:54:05;;;;;;;17.38;4.65;;;8.00;99.90;;;;;;5095710;28;20039;-57
2023/12/30 10:56:39;;;;;;;19.30;4.65;;;8.10;99.90;;;;;;5077081;28;20035;-58
2023/12/30 10:59:05;;;;;;;;;;;8.20;99.90;;;;;;5086198;28;20572;-59
2023/12/30 11:01:33;;;;;;;19.88;4.20;;;8.40;99.90;;;;;;5107446;28;19919;-58
2023/12/30 11:04:01;;;;;;;16.80;4.68;;;8.40;99.90;;;;;;5113666;28;20119;-58
2023/12/30 11:06:41;;;;;;;15.82;4.03;;;8.70;99.90;;;;;;5114100;28;20058;-57
2023/12/30 11:09:09;;;;;;;17.77;4.15;;;8.50;99.90;;;;;;5110751;28;20039;-59
2023/12/30 11:11:39;;;;;;;13.93;4.35;;;8.50;99.90;;;;;;5113800;28;20046;-57
2023/12/30 11:14:12;;;;;;;13.80;3.63;;;8.50;99.90;;;;;;5113182;28;20038;-58
2023/12/30 11:16:37;;;;;;;15.55;3.53;;;8.30;99.90;;;;;;5031894;28;20084;-58
2023/12/30 11:19:04;;;;;;;15.23;4.05;;;8.40;99.90;;;;;;5041451;28;20059;-58
2023/12/30 11:21:32;;;;;;;17.60;3.08;;;8.20;99.90;;;;;;5113509;28;20070;-59
2023/12/30 11:24:03;;;;;;;14.98;3.15;;;8.30;99.90;;;;;;5113291;28;20460;-59
2023/12/30 11:26:30;;;;;;;15.10;3.80;;;8.40;99.90;;;;;;5113775;28;20596;-58
2023/12/30 11:28:59;;;;;;;17.80;3.33;;;8.20;99.90;;;;;;5113509;28;20381;-57
2023/12/30 11:31:30;;;;;;;15.43;3.70;;;8.40;99.90;;;;;;5112786;28;20091;-58
2023/12/30 11:33:58;;;;;;;18.98;3.28;;;8.40;99.90;;;;;;5024524;28;20497;-58
2023/12/30 11:36:26;;;;;;;17.08;3.45;;;8.50;99.90;;;;;;5095401;28;20124;-59
2023/12/30 11:38:55;;;;;;;12.50;3.25;;;8.60;99.90;;;;;;5072843;28;20436;-60
2023/12/30 11:41:22;;;;;;;11.57;2.80;;;8.70;99.90;;;;;;5009385;28;20053;-59
2023/12/30 11:43:48;;;;;;;15.38;3.20;;;9.00;99.90;;;;;;5078736;28;20067;-57
2023/12/30 11:46:14;;;;;;;25.20;4.15;;;8.70;99.90;;;;;;5064824;28;20024;-57
2023/12/30 11:48:43;;;;;;;16.98;3.90;;;8.70;99.90;;;;;;5078762;28;20158;-58
2023/12/30 11:51:10;;;;;;;21.90;3.55;;;8.80;99.90;;;;;;5070118;27;20043;-58
2023/12/30 11:53:35;;;;;;;18.88;3.58;;;8.70;99.90;;;;;;5074601;28;20040;-58
2023/12/30 11:56:02;;;;;;;15.02;3.28;;;8.50;99.90;;;;;;5079963;28;20104;-58
2023/12/30 11:58:30;;;;;;;16.60;3.55;;;8.50;99.90;;;;;;5078022;28;20053;-59
2023/12/30 12:00:56;;;;;;;16.45;3.25;;;8.60;99.90;;;;;;5075157;28;20114;-57
2023/12/30 12:03:22;;;;;;;16.92;2.72;;;8.40;99.90;;;;;;5087105;28;20037;-57
2023/12/30 12:05:48;;;;;;;19.73;3.25;;;8.70;99.90;;;;;;5086407;28;20065;-58
2023/12/30 12:08:14;;;;;;;15.90;3.45;;;8.60;99.90;;;;;;5077181;28;20042;-58
2023/12/30 12:10:40;;;;;;;17.08;3.53;;;8.50;99.90;;;;;;5082447;28;20045;-58
2023/12/30 12:13:09;;;;;;;18.35;4.55;;;8.80;99.90;;;;;;5084436;28;20044;-59
2023/12/30 12:15:35;;;;;;;20.48;4.30;;;8.70;99.90;;;;;;5076952;28;20520;-57
2023/12/30 12:18:01;;;;;;;18.85;4.75;;;8.70;99.90;;;;;;5063059;28;20029;-59
2023/12/30 12:20:26;;;;;;;14.80;3.35;;;8.50;99.90;;;;;;5046775;28;20492;-58
2023/12/30 12:22:55;;;;;;;24.52;4.32;;;8.80;99.90;;;;;;5066741;28;20035;-59
2023/12/30 12:25:24;;;;;;;20.75;3.85;;;8.70;99.90;;;;;;5066742;28;20585;-57
2023/12/30 12:27:50;;;;;;;18.35;3.83;;;8.60;99.90;;;;;;5055450;28;20099;-58
2023/12/30 12:30:16;;;;;;;16.42;3.67;;;8.70;99.90;;;;;;5036157;28;20042;-57
2023/12/30 12:32:42;;;;;;;18.33;4.28;;;8.60;99.90;;;;;;5060700;28;20087;-58
2023/12/30 12:35:08;;;;;;;24.15;4.70;;;8.80;99.90;;;;;;5061999;28;20405;-57
2023/12/30 12:37:33;;;;;;;17.70;4.85;;;8.70;99.90;;;;;;5062382;28;20055;-59
2023/12/30 12:39:59;;;;;;;17.77;5.07;;;8.50;99.90;;;;;;5011774;28;20038;-56
2023/12/30 12:42:28;;;;;;;20.42;4.68;;;8.60;99.90;;;;;;5060145;28;20148;-59
2023/12/30 12:44:54;;;;;;;25.50;6.22;;;8.70;99.90;;;;;;5075014;28;20391;-57